Time;durP1;ratioP1;P1;durP2;ratioP2;P2;SDS_P1;SDS_P2;PMS_P1;PMS_P2;Temp;Humidity;BMP_temperature;BMP_pressure;BME280_temperature;BME280_humidity;BME280_pressure;Samples;Min_cycle;Max_cycle;Signal;HPM_P1;HPM_P2
2022/12/10 00:00:49;;;;;;;27.77;10.02;;;1.70;82.90;;;;;;5113486;28;20036;-78
2022/12/10 00:03:15;;;;;;;33.47;12.02;;;1.70;82.90;;;;;;5114281;28;20102;-79
2022/12/10 00:05:40;;;;;;;35.10;11.63;;;1.70;82.90;;;;;;5115163;28;20055;-79
2022/12/10 00:08:06;;;;;;;25.98;9.85;;;1.70;82.50;;;;;;5097267;28;20084;-78
2022/12/10 00:10:31;;;;;;;27.83;10.90;;;1.70;83.40;;;;;;5114166;28;20053;-78
2022/12/10 00:12:57;;;;;;;31.13;10.55;;;1.70;82.20;;;;;;5115062;28;20028;-78
2022/12/10 00:15:23;;;;;;;32.50;10.15;;;1.70;81.90;;;;;;5114070;28;20050;-78
2022/12/10 00:17:48;;;;;;;32.92;10.60;;;1.60;82.40;;;;;;5097198;28;20058;-78
2022/12/10 00:20:14;;;;;;;33.55;11.27;;;1.60;82.20;;;;;;5113838;28;20051;-78
2022/12/10 00:22:39;;;;;;;28.23;10.93;;;1.50;81.90;;;;;;5096915;28;20030;-79
2022/12/10 00:25:05;;;;;;;30.63;10.70;;;1.60;82.10;;;;;;5113785;28;20028;-79
2022/12/10 00:27:31;;;;;;;27.63;10.20;;;1.50;81.60;;;;;;5113793;28;20035;-78
2022/12/10 00:29:57;;;;;;;29.60;10.63;;;1.50;81.60;;;;;;5113788;28;20025;-78
2022/12/10 00:32:22;;;;;;;35.92;10.93;;;1.40;81.80;;;;;;5113813;28;20040;-78
2022/12/10 00:34:48;;;;;;;31.67;11.45;;;1.40;81.60;;;;;;5096772;28;20020;-78
2022/12/10 00:37:13;;;;;;;32.40;10.77;;;1.40;81.80;;;;;;5114697;28;20483;-78
2022/12/10 00:39:39;;;;;;;30.05;11.70;;;1.40;82.10;;;;;;5114452;28;20043;-78
2022/12/10 00:42:05;;;;;;;32.45;11.75;;;1.40;82.50;;;;;;5114641;28;20028;-78
2022/12/10 00:44:30;;;;;;;36.47;12.52;;;1.40;82.60;;;;;;5113422;28;20028;-78
2022/12/10 00:46:56;;;;;;;30.23;11.15;;;1.50;82.80;;;;;;5114408;28;20019;-78
2022/12/10 00:49:24;;;;;;;32.15;11.95;;;1.40;81.90;;;;;;5096231;28;20052;-78
2022/12/10 00:51:50;;;;;;;32.78;11.18;;;1.20;81.80;;;;;;5080325;28;20035;-78
2022/12/10 00:54:15;;;;;;;30.50;11.88;;;1.20;82.40;;;;;;5113476;28;20032;-78
2022/12/10 00:56:41;;;;;;;30.75;12.88;;;1.30;82.80;;;;;;5113285;28;20031;-78
2022/12/10 00:59:07;;;;;;;27.90;10.73;;;1.30;83.20;;;;;;5113193;28;20082;-79
2022/12/10 01:01:36;;;;;;;31.67;11.57;;;1.30;83.30;;;;;;5113161;28;20019;-78
2022/12/10 01:04:09;;;;;;;31.50;11.82;;;1.30;83.40;;;;;;5113144;28;20041;-79
2022/12/10 01:06:40;;;;;;;33.30;11.25;;;1.30;83.70;;;;;;5114147;28;20050;-78
2022/12/10 01:09:09;;;;;;;34.50;12.15;;;1.40;83.80;;;;;;5113097;28;20036;-79
2022/12/10 01:11:38;;;;;;;34.42;11.35;;;1.40;83.90;;;;;;5113869;28;20044;-78
2022/12/10 01:14:05;;;;;;;31.65;11.63;;;1.30;83.90;;;;;;5114009;28;20020;-78
2022/12/10 01:16:31;;;;;;;37.40;12.88;;;1.40;84.00;;;;;;5112842;28;20024;-78
2022/12/10 01:18:58;;;;;;;35.88;11.30;;;1.40;83.80;;;;;;5112790;28;20070;-79
2022/12/10 01:21:25;;;;;;;32.13;11.68;;;1.40;83.70;;;;;;5113847;28;20015;-78
2022/12/10 01:23:52;;;;;;;30.75;10.93;;;1.40;83.40;;;;;;5113786;28;20040;-78
2022/12/10 01:26:21;;;;;;;32.13;11.70;;;1.40;83.20;;;;;;5113827;28;20020;-78
2022/12/10 01:28:47;;;;;;;36.28;11.43;;;1.40;83.30;;;;;;5113760;28;20555;-78
2022/12/10 01:31:20;;;;;;;30.55;11.63;;;1.30;82.70;;;;;;5095881;28;20025;-78
2022/12/10 01:33:45;;;;;;;;;;;1.30;83.00;;;;;;5113129;28;20024;-78
2022/12/10 01:36:17;;;;;;;28.95;10.98;;;1.30;82.90;;;;;;5113790;28;19929;-78
2022/12/10 01:38:44;;;;;;;28.67;10.32;;;1.20;82.90;;;;;;5113622;28;20051;-78
2022/12/10 01:41:22;;;;;;;33.78;11.88;;;1.20;83.00;;;;;;5113604;28;20020;-78
2022/12/10 01:43:48;;;;;;;32.47;11.13;;;1.20;83.00;;;;;;5113586;28;20020;-78
2022/12/10 01:46:14;;;;;;;34.15;12.80;;;1.20;83.60;;;;;;5113576;28;20103;-78
2022/12/10 01:48:40;;;;;;;32.95;12.02;;;1.20;83.70;;;;;;5112410;28;20055;-78
2022/12/10 01:51:06;;;;;;;32.38;12.43;;;1.30;83.50;;;;;;5113544;28;20028;-78
2022/12/10 01:53:33;;;;;;;33.63;10.93;;;1.30;83.00;;;;;;5112641;28;20020;-78
2022/12/10 01:55:58;;;;;;;32.92;11.68;;;1.10;82.10;;;;;;5112488;28;20020;-78
2022/12/10 01:58:24;;;;;;;40.10;12.90;;;1.10;82.80;;;;;;5113368;28;20031;-78
2022/12/10 02:00:57;;;;;;;34.97;12.85;;;1.00;82.70;;;;;;5112525;28;20024;-78
2022/12/10 02:03:44;;;;;;;37.75;12.65;;;1.00;83.00;;;;;;5113391;28;20028;-78
2022/12/10 02:06:21;;;;;;;37.40;12.35;;;1.00;83.20;;;;;;5113503;28;20056;-78
2022/12/10 02:09:04;;;;;;;33.95;11.10;;;1.00;83.00;;;;;;5112322;28;20024;-78
2022/12/10 02:11:33;;;;;;;;;;;1.00;82.90;;;;;;5113922;28;20022;-78
2022/12/10 02:14:23;;;;;;;26.38;10.98;;;1.00;83.00;;;;;;5113324;28;19904;-78
2022/12/10 02:17:33;;;;;;;40.85;12.73;;;0.90;82.60;;;;;;5113354;28;20039;-78
2022/12/10 02:20:10;;;;;;;29.95;11.63;;;0.80;82.80;;;;;;5031192;28;20034;-78
2022/12/10 02:22:54;;;;;;;30.63;11.85;;;0.70;83.60;;;;;;5108951;28;20032;-78
2022/12/10 02:25:44;;;;;;;30.67;11.38;;;0.80;83.80;;;;;;5117213;28;20021;-78
2022/12/10 02:28:39;;;;;;;33.45;12.40;;;0.90;83.50;;;;;;5115575;28;20028;-78
2022/12/10 02:31:06;;;;;;;32.50;10.45;;;0.80;83.10;;;;;;5117229;28;20016;-78
2022/12/10 02:33:34;;;;;;;33.38;12.10;;;0.80;83.20;;;;;;5117028;28;20115;-78
2022/12/10 02:36:02;;;;;;;35.63;11.75;;;0.80;82.60;;;;;;5116080;28;20020;-79
2022/12/10 02:38:31;;;;;;;37.28;12.23;;;0.70;83.10;;;;;;5115899;28;20032;-78
2022/12/10 02:41:12;;;;;;;31.77;11.25;;;0.80;83.30;;;;;;5117003;28;20044;-78
2022/12/10 02:43:38;;;;;;;33.42;11.32;;;0.80;83.00;;;;;;5116883;28;20103;-78
2022/12/10 02:46:05;;;;;;;32.28;10.35;;;0.90;83.00;;;;;;5115764;28;20020;-78
2022/12/10 02:48:32;;;;;;;34.70;11.75;;;0.80;82.60;;;;;;5115414;28;20062;-78
2022/12/10 02:50:58;;;;;;;31.00;11.10;;;0.80;82.60;;;;;;5115687;28;20117;-78
2022/12/10 02:53:23;;;;;;;45.90;13.52;;;0.80;82.50;;;;;;5116602;28;20032;-78
2022/12/10 02:56:14;;;;;;;32.28;11.32;;;0.80;83.10;;;;;;5115610;28;20039;-78
2022/12/10 02:59:17;;;;;;;31.38;11.60;;;0.80;83.20;;;;;;5116523;28;20034;-78
2022/12/10 03:01:48;;;;;;;;;;;0.90;83.10;;;;;;5116873;28;20040;-78
2022/12/10 03:04:40;;;;;;;27.80;11.43;;;0.90;82.80;;;;;;5116488;28;19911;-78
2022/12/10 03:07:12;;;;;;;30.30;10.07;;;0.90;82.20;;;;;;5116556;28;20027;-78
2022/12/10 03:09:45;;;;;;;36.33;12.13;;;0.80;82.30;;;;;;5116347;28;20027;-78
2022/12/10 03:12:31;;;;;;;28.63;12.00;;;0.70;83.60;;;;;;5115292;28;20027;-78
2022/12/10 03:15:00;;;;;;;30.83;9.85;;;0.70;82.90;;;;;;5115419;28;20028;-78
2022/12/10 03:17:28;;;;;;;31.33;11.43;;;0.70;83.00;;;;;;5116155;28;20494;-78
2022/12/10 03:19:56;;;;;;;33.25;12.77;;;0.70;83.10;;;;;;5116082;28;20020;-78
2022/12/10 03:22:22;;;;;;;39.65;13.13;;;0.60;83.30;;;;;;5115145;28;20076;-78
2022/12/10 03:24:48;;;;;;;36.28;12.68;;;0.60;84.20;;;;;;5115035;28;20055;-78
2022/12/10 03:27:17;;;;;;;31.13;12.30;;;0.60;84.30;;;;;;5116006;28;20050;-78
2022/12/10 03:29:47;;;;;;;30.23;11.73;;;0.60;84.40;;;;;;5114935;28;20024;-78
2022/12/10 03:32:15;;;;;;;34.40;11.70;;;0.70;84.50;;;;;;5115889;28;20102;-78
2022/12/10 03:34:43;;;;;;;35.42;12.48;;;0.70;84.40;;;;;;5114553;28;20028;-78
2022/12/10 03:37:10;;;;;;;32.85;12.60;;;0.80;84.60;;;;;;5114811;28;20069;-78
2022/12/10 03:39:37;;;;;;;36.80;13.77;;;0.80;84.50;;;;;;5114752;28;20065;-78
2022/12/10 03:42:04;;;;;;;34.88;13.02;;;0.80;84.10;;;;;;5114686;28;20032;-78
2022/12/10 03:44:33;;;;;;;33.25;13.07;;;0.90;84.10;;;;;;5097940;28;20024;-78
2022/12/10 03:46:58;;;;;;;32.25;11.23;;;0.80;84.00;;;;;;5115624;28;20024;-78
2022/12/10 03:49:25;;;;;;;38.50;12.18;;;0.90;84.20;;;;;;5115385;28;20101;-78
2022/12/10 03:51:50;;;;;;;37.00;13.45;;;0.90;84.30;;;;;;5097721;28;20024;-78
2022/12/10 03:54:16;;;;;;;37.00;13.43;;;0.90;84.00;;;;;;5097635;28;20386;-78
2022/12/10 03:56:42;;;;;;;30.85;11.45;;;0.90;84.10;;;;;;5115412;28;20027;-78
2022/12/10 03:59:07;;;;;;;37.55;12.43;;;0.80;83.80;;;;;;5114327;28;20088;-78
2022/12/10 04:01:33;;;;;;;34.28;12.82;;;0.90;84.10;;;;;;5114300;28;20535;-78
2022/12/10 04:03:59;;;;;;;36.17;13.20;;;0.90;84.00;;;;;;5080718;28;20023;-78
2022/12/10 04:06:25;;;;;;;34.22;11.45;;;0.90;84.60;;;;;;5115237;28;20023;-78
2022/12/10 04:08:52;;;;;;;31.15;12.52;;;0.90;83.60;;;;;;5115081;28;20058;-78
2022/12/10 04:11:18;;;;;;;34.08;11.32;;;0.90;83.20;;;;;;5114102;28;20020;-78
2022/12/10 04:16:30;;;;;;;33.33;12.50;;;0.60;83.10;;;;;;5115145;28;20039;-78
2022/12/10 04:18:58;;;;;;;38.00;13.27;;;0.50;84.20;;;;;;5114941;28;20095;-78
2022/12/10 04:26:56;;;;;;;33.30;12.32;;;0.10;87.80;;;;;;5115017;28;20087;-78
2022/12/10 04:29:27;;;;;;;43.28;15.68;;;0.10;89.50;;;;;;5097043;28;20091;-79
2022/12/10 04:31:53;;;;;;;51.08;15.93;;;0.00;90.10;;;;;;5114727;28;20149;-78
2022/12/10 04:34:19;;;;;;;43.80;14.35;;;0.10;90.00;;;;;;5096717;28;20020;-78
2022/12/10 04:36:45;;;;;;;45.25;14.13;;;0.10;89.40;;;;;;5096672;28;20054;-78
2022/12/10 04:39:11;;;;;;;45.17;14.63;;;0.20;89.20;;;;;;5113577;28;20024;-78
2022/12/10 04:41:40;;;;;;;29.35;12.38;;;0.30;89.70;;;;;;5114541;28;20016;-78
2022/12/10 04:44:06;;;;;;;41.05;12.45;;;0.20;90.00;;;;;;5114526;28;20022;-78
2022/12/10 04:46:32;;;;;;;37.42;12.25;;;0.10;90.50;;;;;;5113233;28;20384;-78
2022/12/10 04:48:57;;;;;;;29.85;11.50;;;0.10;90.40;;;;;;5114142;28;20040;-78
2022/12/10 04:51:23;;;;;;;29.00;10.75;;;0.00;90.70;;;;;;5114349;28;20036;-78
2022/12/10 04:53:49;;;;;;;39.83;15.30;;;-0.10;91.00;;;;;;5114292;28;20039;-78
2022/12/10 04:56:14;;;;;;;31.33;12.27;;;-0.20;91.20;;;;;;5114282;28;20043;-78
2022/12/10 04:58:40;;;;;;;27.40;11.43;;;-0.10;91.40;;;;;;5113201;28;20032;-78
2022/12/10 05:01:09;;;;;;;33.55;11.75;;;-0.10;91.20;;;;;;5096412;28;20024;-78
2022/12/10 05:03:35;;;;;;;31.52;12.07;;;-0.20;91.50;;;;;;5113114;28;20031;-78
2022/12/10 05:06:06;;;;;;;35.00;12.25;;;-0.20;91.50;;;;;;5114082;28;20028;-78
2022/12/10 05:08:32;;;;;;;41.10;12.85;;;-0.10;91.30;;;;;;5114002;28;20024;-78
2022/12/10 05:11:06;;;;;;;36.13;12.60;;;-0.10;91.50;;;;;;5114155;28;20107;-78
2022/12/10 05:13:32;;;;;;;39.08;14.35;;;-0.20;91.70;;;;;;5114106;28;20016;-78
2022/12/10 05:16:00;;;;;;;43.03;12.82;;;-0.20;91.90;;;;;;5114005;28;20510;-78
2022/12/10 05:18:26;;;;;;;28.17;11.27;;;-0.20;92.00;;;;;;5113028;28;20032;-78
2022/12/10 05:20:51;;;;;;;43.75;13.90;;;-0.20;92.10;;;;;;5113920;28;20032;-78
2022/12/10 05:23:29;;;;;;;40.67;13.07;;;-0.20;91.90;;;;;;5096025;28;20028;-78
2022/12/10 05:26:12;;;;;;;36.28;12.43;;;-0.10;91.80;;;;;;5112984;28;20024;-78
2022/12/10 05:28:44;;;;;;;45.10;15.00;;;-0.10;91.80;;;;;;5113819;28;20035;-78
2022/12/10 05:31:22;;;;;;;36.70;13.80;;;-0.10;91.80;;;;;;5113964;28;20160;-78
2022/12/10 05:33:48;;;;;;;39.88;13.85;;;-0.10;91.80;;;;;;5112797;28;20046;-78
2022/12/10 05:36:16;;;;;;;44.67;13.57;;;0.00;91.60;;;;;;5112677;28;20043;-78
2022/12/10 05:38:42;;;;;;;36.97;13.05;;;0.10;91.60;;;;;;5112621;28;20016;-78
2022/12/10 05:41:18;;;;;;;44.30;13.90;;;0.20;91.40;;;;;;5112678;28;20032;-78
2022/12/10 05:43:44;;;;;;;42.53;15.00;;;0.30;91.60;;;;;;5112584;28;20096;-78
2022/12/10 05:46:19;;;;;;;41.55;14.60;;;0.30;91.20;;;;;;5112635;28;20036;-78
2022/12/10 05:48:45;;;;;;;34.92;11.88;;;0.20;91.30;;;;;;5113408;28;20040;-78
2022/12/10 05:51:22;;;;;;;37.40;13.05;;;0.10;91.40;;;;;;5113505;28;20548;-78
2022/12/10 05:53:48;;;;;;;43.40;13.63;;;0.10;91.50;;;;;;5113705;28;20504;-78
2022/12/10 05:56:18;;;;;;;38.83;12.40;;;0.10;91.70;;;;;;5113487;28;20085;-77
2022/12/10 05:58:45;;;;;;;44.20;14.35;;;0.10;91.80;;;;;;5116206;28;20016;-78
2022/12/10 06:01:13;;;;;;;25.70;10.02;;;0.10;91.80;;;;;;5117691;28;20028;-78
2022/12/10 06:03:39;;;;;;;40.10;12.93;;;0.10;91.90;;;;;;5116682;28;20442;-78
2022/12/10 06:06:05;;;;;;;44.28;14.48;;;0.00;92.10;;;;;;5116604;28;20023;-78
2022/12/10 06:08:32;;;;;;;31.75;11.55;;;0.00;92.30;;;;;;5116495;28;20024;-78
2022/12/10 06:11:05;;;;;;;44.20;13.95;;;-0.10;92.60;;;;;;5117499;28;20075;-78
2022/12/10 06:13:31;;;;;;;46.67;13.60;;;-0.10;92.60;;;;;;5117615;28;20046;-78
2022/12/10 06:15:56;;;;;;;48.63;14.57;;;0.00;92.40;;;;;;5117405;28;20024;-78
2022/12/10 06:18:22;;;;;;;46.53;13.32;;;0.10;92.30;;;;;;5117329;28;20024;-78
2022/12/10 06:20:48;;;;;;;45.33;13.18;;;0.00;92.40;;;;;;5116323;28;20494;-78
2022/12/10 06:23:13;;;;;;;26.20;10.43;;;0.00;92.60;;;;;;5116285;28;20016;-78
2022/12/10 06:25:39;;;;;;;27.77;9.88;;;-0.10;93.10;;;;;;5099363;28;20031;-78
2022/12/10 06:28:06;;;;;;;42.60;13.98;;;-0.10;92.80;;;;;;5117329;28;20111;-78
2022/12/10 06:30:32;;;;;;;26.85;9.80;;;-0.10;93.00;;;;;;5117118;28;20028;-78
2022/12/10 06:32:58;;;;;;;38.70;13.85;;;-0.10;93.20;;;;;;5116116;28;20493;-78
2022/12/10 06:35:23;;;;;;;54.25;13.38;;;-0.20;93.30;;;;;;5099071;28;20028;-78
2022/12/10 06:37:49;;;;;;;40.65;13.93;;;-0.10;93.30;;;;;;5116950;28;20028;-78
2022/12/10 06:40:15;;;;;;;46.80;15.13;;;-0.10;93.20;;;;;;5115973;28;20027;-78
2022/12/10 06:42:41;;;;;;;42.90;13.05;;;0.00;93.00;;;;;;5115861;28;20028;-78
2022/12/10 06:45:07;;;;;;;45.50;15.50;;;0.00;93.00;;;;;;5115829;28;20034;-78
2022/12/10 06:47:33;;;;;;;46.50;14.73;;;0.10;93.00;;;;;;5115795;28;20024;-78
2022/12/10 06:49:59;;;;;;;39.15;14.43;;;0.10;93.00;;;;;;5115573;28;20064;-77
2022/12/10 06:52:24;;;;;;;39.95;15.00;;;0.00;93.00;;;;;;5115643;28;20028;-80
2022/12/10 06:54:50;;;;;;;45.13;13.27;;;0.00;93.10;;;;;;5116681;28;20036;-79
2022/12/10 06:57:15;;;;;;;45.17;12.23;;;0.00;93.20;;;;;;5115678;28;20042;-79
2022/12/10 06:59:41;;;;;;;29.23;10.57;;;0.00;93.20;;;;;;5115585;28;20091;-81
2022/12/10 07:02:11;;;;;;;35.38;14.00;;;0.00;93.70;;;;;;5098603;28;20032;-79
2022/12/10 07:04:36;;;;;;;35.55;12.75;;;0.00;93.40;;;;;;5098536;28;20031;-79
2022/12/10 07:07:02;;;;;;;39.35;12.25;;;0.00;93.40;;;;;;5115553;28;20028;-80
2022/12/10 07:09:28;;;;;;;41.67;13.82;;;0.10;93.30;;;;;;5115930;28;20028;-79
2022/12/10 07:11:53;;;;;;;55.03;16.58;;;0.10;93.20;;;;;;5115407;28;20368;-79
2022/12/10 07:14:19;;;;;;;52.25;15.20;;;0.20;92.90;;;;;;5081678;28;20024;-80
2022/12/10 07:16:45;;;;;;;41.63;14.75;;;0.30;92.80;;;;;;5115250;28;20027;-80
2022/12/10 07:19:11;;;;;;;44.20;14.80;;;0.30;92.80;;;;;;5098213;28;20075;-80
2022/12/10 07:21:40;;;;;;;51.72;16.30;;;0.20;92.70;;;;;;5098332;28;20047;-79
2022/12/10 07:24:14;;;;;;;24.58;9.38;;;0.20;93.20;;;;;;5116067;28;20032;-79
2022/12/10 07:26:42;;;;;;;31.20;11.48;;;0.10;92.90;;;;;;5116052;28;20028;-80
2022/12/10 07:29:12;;;;;;;33.60;10.30;;;0.10;93.00;;;;;;5114924;28;20028;-79
2022/12/10 07:31:37;;;;;;;47.20;13.57;;;0.00;93.20;;;;;;5116013;28;20035;-79
2022/12/10 07:34:03;;;;;;;31.05;10.95;;;0.00;93.20;;;;;;5098123;28;20036;-79
2022/12/10 07:36:29;;;;;;;46.67;14.30;;;0.10;93.10;;;;;;5097908;28;20032;-78
2022/12/10 07:38:55;;;;;;;54.15;15.30;;;0.10;93.10;;;;;;5114708;28;20065;-78
2022/12/10 07:41:22;;;;;;;44.13;15.02;;;0.20;93.00;;;;;;5114716;28;20020;-77
2022/12/10 07:43:48;;;;;;;47.90;14.23;;;0.20;92.90;;;;;;5115664;28;20035;-76
2022/12/10 07:46:21;;;;;;;40.83;13.73;;;0.20;92.80;;;;;;5097683;28;20042;-77
2022/12/10 07:48:48;;;;;;;31.50;10.95;;;0.10;92.90;;;;;;5115516;28;20068;-78
2022/12/10 07:51:15;;;;;;;34.95;11.80;;;0.00;93.20;;;;;;5114536;28;20036;-78
2022/12/10 07:53:41;;;;;;;44.30;13.48;;;0.00;93.40;;;;;;5115498;28;20024;-78
2022/12/10 07:56:07;;;;;;;32.40;10.52;;;-0.10;93.50;;;;;;5114439;28;20047;-78
2022/12/10 07:58:33;;;;;;;35.53;11.75;;;-0.10;93.60;;;;;;5114456;28;20028;-78
2022/12/10 08:00:59;;;;;;;36.30;11.98;;;-0.10;93.70;;;;;;5115373;28;20035;-77
2022/12/10 08:03:25;;;;;;;35.38;13.20;;;-0.10;93.70;;;;;;5115302;28;20032;-78
2022/12/10 08:06:03;;;;;;;31.90;10.32;;;-0.10;93.80;;;;;;5097317;28;20032;-77
2022/12/10 08:08:29;;;;;;;34.30;11.65;;;-0.10;93.80;;;;;;5115196;28;20024;-78
2022/12/10 08:10:55;;;;;;;36.97;12.02;;;-0.10;93.80;;;;;;5115146;28;20156;-78
2022/12/10 08:13:20;;;;;;;44.28;14.07;;;-0.10;93.80;;;;;;5114122;28;20047;-76
2022/12/10 08:15:46;;;;;;;38.33;12.65;;;0.00;93.80;;;;;;5115058;28;20039;-77
2022/12/10 08:18:11;;;;;;;38.95;13.45;;;-0.10;93.70;;;;;;5080449;28;20039;-80
2022/12/10 08:20:37;;;;;;;44.03;13.45;;;-0.10;93.80;;;;;;5096387;28;20111;-80
2022/12/10 08:23:02;;;;;;;53.22;13.25;;;-0.10;93.90;;;;;;5096990;28;20107;-78
2022/12/10 08:25:28;;;;;;;30.48;10.80;;;-0.10;93.80;;;;;;5114887;28;20027;-77
2022/12/10 08:27:54;;;;;;;41.20;12.43;;;-0.10;93.80;;;;;;5114815;28;20080;-78
2022/12/10 08:30:19;;;;;;;39.35;11.52;;;-0.10;93.80;;;;;;5113758;28;20038;-77
2022/12/10 08:32:45;;;;;;;27.83;11.32;;;0.00;93.80;;;;;;5114711;28;20020;-80
2022/12/10 08:35:10;;;;;;;40.05;12.80;;;0.00;93.70;;;;;;5114697;28;20394;-77
2022/12/10 08:37:36;;;;;;;41.83;14.15;;;0.00;93.70;;;;;;5113782;28;20079;-79
2022/12/10 08:40:02;;;;;;;33.30;13.55;;;0.10;93.70;;;;;;5114545;28;20035;-79
2022/12/10 08:42:28;;;;;;;46.40;14.75;;;0.10;93.70;;;;;;5114646;28;20050;-77
2022/12/10 08:44:53;;;;;;;33.60;12.48;;;0.00;93.70;;;;;;5114497;28;20035;-78
2022/12/10 08:47:19;;;;;;;47.08;13.20;;;0.00;93.80;;;;;;5096668;28;20016;-80
2022/12/10 08:49:44;;;;;;;41.33;13.32;;;0.00;93.80;;;;;;5114268;28;20487;-80
2022/12/10 08:52:10;;;;;;;35.33;11.73;;;0.10;93.80;;;;;;5113422;28;20063;-80
2022/12/10 08:54:36;;;;;;;45.05;13.23;;;0.10;93.70;;;;;;5113572;28;20036;-81
2022/12/10 08:57:01;;;;;;;43.33;14.15;;;0.10;93.60;;;;;;5113299;28;20122;-81
2022/12/10 08:59:27;;;;;;;41.95;12.60;;;0.10;93.70;;;;;;5096357;28;20081;-80
2022/12/10 09:01:52;;;;;;;36.33;9.45;;;0.20;93.70;;;;;;5096249;28;20034;-80
2022/12/10 09:04:18;;;;;;;51.42;14.27;;;0.20;93.70;;;;;;5114203;28;20083;-80
2022/12/10 09:06:44;;;;;;;33.60;9.70;;;0.20;93.70;;;;;;5113110;28;20028;-80
2022/12/10 09:09:09;;;;;;;35.40;13.43;;;0.20;93.60;;;;;;5096179;28;20042;-81
2022/12/10 09:11:35;;;;;;;42.97;15.95;;;0.20;93.70;;;;;;5096135;28;20024;-80
2022/12/10 09:14:01;;;;;;;34.22;12.07;;;0.20;93.80;;;;;;5113070;28;20036;-80
2022/12/10 09:16:30;;;;;;;45.83;14.38;;;0.10;93.80;;;;;;5114028;28;20097;-80
2022/12/10 09:18:56;;;;;;;32.55;11.27;;;0.20;93.90;;;;;;5113857;28;20039;-80
2022/12/10 09:21:22;;;;;;;44.25;12.07;;;0.10;93.90;;;;;;5113956;28;20024;-81
2022/12/10 09:23:50;;;;;;;28.25;11.32;;;0.10;93.80;;;;;;5079291;28;20050;-80
2022/12/10 09:26:16;;;;;;;42.22;13.98;;;0.10;93.90;;;;;;5113808;28;20012;-81
2022/12/10 09:28:42;;;;;;;30.00;9.88;;;0.20;94.30;;;;;;5112856;28;20043;-80
2022/12/10 09:31:09;;;;;;;42.17;13.50;;;0.20;93.90;;;;;;5113633;28;20047;-80
2022/12/10 09:33:35;;;;;;;37.97;11.63;;;0.20;93.90;;;;;;5113648;28;20039;-80
2022/12/10 09:36:06;;;;;;;39.70;11.65;;;0.20;93.90;;;;;;5113715;28;20027;-80
2022/12/10 09:38:34;;;;;;;36.63;12.75;;;0.20;93.90;;;;;;5113806;28;20018;-80
2022/12/10 09:41:13;;;;;;;41.67;12.93;;;0.20;94.00;;;;;;5095768;28;20036;-81
2022/12/10 09:44:01;;;;;;;45.25;13.77;;;0.20;94.30;;;;;;5112724;28;20054;-80
2022/12/10 09:46:38;;;;;;;36.47;11.90;;;0.20;93.90;;;;;;5112793;28;20016;-80
2022/12/10 09:49:33;;;;;;;35.55;12.30;;;0.20;93.90;;;;;;5113461;28;20129;-80
2022/12/10 09:52:04;;;;;;;31.85;11.20;;;0.30;93.80;;;;;;5082256;28;20047;-80
2022/12/10 09:54:34;;;;;;;41.25;13.20;;;0.20;93.80;;;;;;5113672;28;20060;-81
2022/12/10 09:57:01;;;;;;;36.72;13.43;;;0.20;93.80;;;;;;5113528;28;20020;-80
2022/12/10 09:59:41;;;;;;;27.27;10.30;;;0.20;93.90;;;;;;5112372;28;20032;-81
2022/12/10 10:02:22;;;;;;;29.95;10.90;;;0.20;93.90;;;;;;5112430;28;20024;-81
2022/12/10 10:04:54;;;;;;;32.88;12.02;;;0.20;93.80;;;;;;5112276;28;20029;-78
2022/12/10 10:07:26;;;;;;;40.47;11.88;;;0.30;93.80;;;;;;5113491;28;20031;-82
2022/12/10 10:10:00;;;;;;;34.35;11.07;;;0.30;93.80;;;;;;5112329;28;20102;-80
2022/12/10 10:12:32;;;;;;;38.08;10.70;;;0.40;93.70;;;;;;5112426;28;20429;-80
2022/12/10 10:15:10;;;;;;;27.02;11.48;;;0.30;93.70;;;;;;5112436;28;20028;-80
2022/12/10 10:17:37;;;;;;;38.15;11.40;;;0.30;93.80;;;;;;5113480;28;20020;-80
2022/12/10 10:20:03;;;;;;;45.97;12.60;;;0.20;93.80;;;;;;5113181;28;20028;-80
2022/12/10 10:22:30;;;;;;;36.00;9.95;;;0.30;93.80;;;;;;5078854;28;20113;-80
2022/12/10 10:24:56;;;;;;;41.92;12.18;;;0.30;93.80;;;;;;5112298;28;20039;-80
2022/12/10 10:27:26;;;;;;;24.25;9.05;;;0.40;93.80;;;;;;5112342;28;20028;-80
2022/12/10 10:29:55;;;;;;;40.65;12.40;;;0.40;93.70;;;;;;5113304;28;20047;-81
2022/12/10 10:32:47;;;;;;;40.85;11.68;;;0.40;93.70;;;;;;5095327;28;20028;-80
2022/12/10 10:35:20;;;;;;;42.72;12.23;;;0.40;93.70;;;;;;5113185;28;20024;-81
2022/12/10 10:37:46;;;;;;;42.60;13.35;;;0.40;93.70;;;;;;5113102;28;20031;-80
2022/12/10 10:40:27;;;;;;;43.67;12.60;;;0.50;93.70;;;;;;5111987;28;20031;-80
2022/12/10 10:42:56;;;;;;;29.23;9.90;;;0.50;93.60;;;;;;5113117;28;20028;-80
2022/12/10 10:45:52;;;;;;;38.45;11.63;;;0.50;93.50;;;;;;5115535;28;20013;-80
2022/12/10 10:48:25;;;;;;;26.73;9.15;;;0.40;93.50;;;;;;5115214;28;20483;-80
2022/12/10 10:51:07;;;;;;;43.88;11.13;;;0.40;93.50;;;;;;5116758;28;20044;-80
2022/12/10 10:53:39;;;;;;;39.13;12.85;;;0.50;93.50;;;;;;5116786;28;20052;-80
2022/12/10 10:56:23;;;;;;;41.95;12.52;;;0.60;93.40;;;;;;5116665;28;20028;-80
2022/12/10 10:58:55;;;;;;;39.33;10.57;;;0.60;93.30;;;;;;5116562;28;20020;-80
2022/12/10 11:01:23;;;;;;;23.17;9.50;;;0.50;93.40;;;;;;5116613;28;20032;-80
2022/12/10 11:03:59;;;;;;;37.17;10.30;;;0.50;93.50;;;;;;5115678;28;20024;-80
2022/12/10 11:06:25;;;;;;;30.58;11.13;;;0.50;93.70;;;;;;5115481;28;20032;-81
2022/12/10 11:08:55;;;;;;;41.65;12.85;;;0.50;93.70;;;;;;5116314;28;20024;-80
2022/12/10 11:11:34;;;;;;;29.08;8.88;;;0.50;93.70;;;;;;5115426;28;20017;-81
2022/12/10 11:14:45;;;;;;;34.80;10.25;;;0.60;93.90;;;;;;5116434;28;20012;-80
2022/12/10 11:17:12;;;;;;;39.13;10.95;;;0.50;93.50;;;;;;5110901;28;20489;-80
2022/12/10 11:19:53;;;;;;;29.63;9.60;;;0.40;93.70;;;;;;5116169;28;20035;-80
2022/12/10 11:22:29;;;;;;;42.60;10.00;;;0.40;93.80;;;;;;5116218;28;20084;-80
2022/12/10 11:24:55;;;;;;;46.50;11.30;;;0.30;93.90;;;;;;5116107;28;20016;-80
2022/12/10 11:27:44;;;;;;;39.55;12.00;;;0.40;94.10;;;;;;5116057;28;20043;-80
2022/12/10 11:30:17;;;;;;;41.47;12.77;;;0.40;94.20;;;;;;5116080;28;20033;-80
2022/12/10 11:33:15;;;;;;;37.60;12.60;;;0.50;94.60;;;;;;5115997;28;20083;-80
2022/12/10 11:35:54;;;;;;;37.97;11.95;;;0.50;94.10;;;;;;5114897;28;20047;-80
2022/12/10 11:39:02;;;;;;;41.30;12.07;;;0.50;94.10;;;;;;5115929;28;20051;-80
2022/12/10 11:42:02;;;;;;;41.05;14.43;;;0.50;94.10;;;;;;5114918;28;20039;-80
2022/12/10 11:44:48;;;;;;;34.53;9.50;;;0.60;93.90;;;;;;5089111;28;20039;-80
2022/12/10 11:47:22;;;;;;;36.50;10.73;;;0.60;93.70;;;;;;5115640;28;20020;-81
2022/12/10 11:49:59;;;;;;;31.10;10.13;;;0.60;93.40;;;;;;5116112;28;20084;-88
2022/12/10 11:53:00;;;;;;;41.50;10.70;;;0.60;93.40;;;;;;5117579;28;20088;-89
2022/12/10 11:55:51;;;;;;;32.50;9.90;;;0.60;93.60;;;;;;5083945;28;20069;-88
2022/12/10 11:58:37;;;;;;;29.48;8.10;;;0.60;93.60;;;;;;5118007;28;20451;-88
2022/12/10 12:01:26;;;;;;;35.60;10.13;;;0.70;93.50;;;;;;5116886;28;20033;-88
2022/12/10 12:04:29;;;;;;;22.90;7.72;;;0.70;93.50;;;;;;5079158;28;20038;-88
2022/12/10 12:06:54;;;;;;;;;;;0.50;93.50;;;;;;5116912;28;20035;-88
2022/12/10 12:09:28;;;;;;;17.88;6.90;;;0.50;93.80;;;;;;5115661;28;19904;-88
2022/12/10 12:12:25;;;;;;;24.98;8.60;;;0.40;94.00;;;;;;5116085;28;20030;-89
2022/12/10 12:15:03;;;;;;;26.35;8.15;;;0.40;94.10;;;;;;5116067;28;20062;-87
2022/12/10 12:17:41;;;;;;;34.75;9.93;;;0.50;94.00;;;;;;5116232;28;20024;-87
2022/12/10 12:20:32;;;;;;;28.27;9.75;;;0.50;93.90;;;;;;5115107;28;20032;-86
2022/12/10 12:23:11;;;;;;;36.50;11.40;;;0.50;93.80;;;;;;5115010;28;20020;-86
2022/12/10 12:25:41;;;;;;;35.08;10.65;;;0.50;93.80;;;;;;5117489;28;20020;-87
2022/12/10 12:28:33;;;;;;;25.45;8.60;;;0.60;93.80;;;;;;5116297;28;20031;-87
2022/12/10 12:31:06;;;;;;;34.78;8.60;;;0.60;93.80;;;;;;5115178;28;20056;-87
2022/12/10 12:33:51;;;;;;;26.48;10.07;;;0.50;93.90;;;;;;5115852;28;20403;-87
2022/12/10 12:36:22;;;;;;;45.47;10.50;;;0.50;94.00;;;;;;5115576;28;20111;-87
2022/12/10 12:39:12;;;;;;;32.03;9.63;;;0.40;94.10;;;;;;5115198;28;20024;-87
2022/12/10 12:41:55;;;;;;;30.13;9.70;;;0.40;94.30;;;;;;5114612;28;20028;-87
2022/12/10 12:44:34;;;;;;;29.45;9.48;;;0.50;94.20;;;;;;5115381;28;20028;-87
2022/12/10 12:47:19;;;;;;;33.03;9.48;;;0.50;94.10;;;;;;5115105;28;20020;-87
2022/12/10 12:49:47;;;;;;;36.33;9.88;;;0.60;94.10;;;;;;5114790;28;20048;-88
2022/12/10 12:52:53;;;;;;;31.58;9.88;;;0.70;94.00;;;;;;5114482;28;20437;-87
2022/12/10 12:55:26;;;;;;;29.10;8.77;;;0.80;94.00;;;;;;5115196;28;20020;-87
2022/12/10 12:58:13;;;;;;;34.08;9.98;;;0.80;93.90;;;;;;5115435;28;20016;-87
2022/12/10 13:00:41;;;;;;;33.47;10.73;;;0.90;93.70;;;;;;5115397;28;20060;-87
2022/12/10 13:03:15;;;;;;;32.25;11.30;;;0.80;93.40;;;;;;5114462;28;20035;-87
2022/12/10 13:05:42;;;;;;;33.85;11.70;;;0.80;93.30;;;;;;5114728;28;20091;-86